Detalii statie BEREGSANA BEREGSAU [00001991]

Toti senzorii

Date Temperatura solului [C]Precipitatii [mm]Voltaj baterie [mV]Leaf Wetness [Min]HC Air temperature [C]HC Relative humidity [%]Punctul de roua [C]
medieminmaxsumaultimatimpmedieminmaxmediemediemin
2018-08-12 11:00:00 22.3 22.1 22.5 0 7314
2018-08-12 12:00:00 22.4 22.3 22.6 0 7314
2018-08-12 13:00:00 22.6 22.4 22.9 0 7314
2018-08-12 14:00:00 22.9 22.7 23.2 0 7304
2018-08-12 15:00:00 23.6 23.1 24.1 0 7304
2018-08-12 16:00:00 24.6 24.2 25.1 0 7314
2018-08-12 17:00:00 25.5 25.1 25.9 0 7304
2018-08-12 18:00:00 26.2 25.9 26.5 0 7304
2018-08-12 19:00:00 26.5 26.3 26.7 0 7304
2018-08-12 20:00:00 26.6 26.6 26.8 0 7040
2018-08-12 21:00:00 26.4 26.3 26.7 0 7010
2018-08-12 22:00:00 26.1 25.9 26.4 0 7000
2018-08-12 23:00:00 25.7 25.5 26 0 6992
2018-08-13 00:00:00 25.3 25.2 25.7 0 6982
2018-08-13 01:00:00 24.9 24.7 25.3 0 6962
2018-08-13 02:00:00 24.5 24.4 24.7 0 6952
2018-08-13 03:00:00 24.1 24 24.3 0 6952
2018-08-13 04:00:00 23.8 23.7 24.2 0 6942
2018-08-13 05:00:00 23.5 23.3 23.8 0 6942
2018-08-13 06:00:00 23.2 23 23.4 0 6904
2018-08-13 07:00:00 22.9 22.8 23 0 6922
2018-08-13 08:00:00 22.6 22.5 22.9 0 7020
2018-08-13 09:00:00 22.5 22.4 22.6 0 7088
2018-08-13 10:00:00 22.5 22.4 22.6 0 7216
2018-08-13 11:00:00 22.6 22.4 22.7 0 7304
2018-08-13 12:00:00 22.8 22.7 22.9 0 7314
2018-08-13 13:00:00 22.9 22.8 23 0 7304
2018-08-13 14:00:00 23.1 23 23.4 0 7304
2018-08-13 15:00:00 23.8 23.4 24.3 0 7314
2018-08-13 16:00:00 24.8 24.4 25.4 0 7304
2018-08-13 17:00:00 25.7 25.3 26.1 0 7304
2018-08-13 18:00:00 26.4 26.1 26.8 0 7304
2018-08-13 19:00:00 26.7 26.7 26.9 0 7274
2018-08-13 20:00:00 26.9 26.8 27 0 7040
2018-08-13 21:00:00 26.6 26.4 26.8 0 7020
2018-08-13 22:00:00 26.3 26 26.6 0 6952
2018-08-13 23:00:00 25.8 25.7 26.1 0 6952
2018-08-14 00:00:00 25.4 25.2 25.7 0 6952
2018-08-14 01:00:00 25 24.7 25.3 0 6932
2018-08-14 02:00:00 24.6 24.4 24.9 0 6932
2018-08-14 03:00:00 24.2 24.1 24.5 0 6932
2018-08-14 04:00:00 23.8 23.6 24.1 0 6932
2018-08-14 05:00:00 23.4 23.3 23.6 0 6932
2018-08-14 06:00:00 23.1 23 23.3 0 6922
2018-08-14 07:00:00 22.7 22.6 23 0 6942
2018-08-14 08:00:00 22.5 22.4 22.7 0 7040
2018-08-14 09:00:00 22.3 22.3 22.5 0 7138
2018-08-14 10:00:00 22.3 22.3 22.5 0 7314